Fairdale, ND (58229)

6:14 AM CDT on August 31, 2015 (GMT -0500)
Langdon | | Change Station
CLOSE
Current Station
Airport
Location: Langdon,
Elevation: 1608 ft
Nearby Weather Stations

Elev 1608 ft 48.75 °N, 98.39 °W | Updated 19 minutes ago

Partly Cloudy
Partly Cloudy
64 °F
Feels Like 64 °F
N
6
Wind Variable Wind from NNE

Today
High -- | Low -- °F
--% Chance of Precip.
Yesterday
High -- | Low -- °F
Precip. -- in
6:48 AM 8:16 PM
Waning Gibbous, 96% visible
Pressure 29.65 in
Visibility 5.0 miles
Clouds Few 11000 ft
Dew Point 63 °F
Humidity 94%
Rainfall 0.00 in
Snow Depth Not available.
UV 0 out of 12
Pollen 11.70 out of 12
Air Quality Not available.
Flu Activity Not available.
METAR KD55 311055Z AUTO 02005KT 5SM BR FEW110 18/17 A2965 RMK AO2 LTG DSNT N AND NE
Pressure 29.65 in
Visibility 5.0 miles
Clouds Few 11000 ft
Dew Point 63 °F
Humidity 94%
Rainfall 0.00 in
Snow Depth Not available.
UV 0 out of 12
Pollen 11.70 out of 12
Air Quality Not available.
Flu Activity Not available.
METAR KD55 311055Z AUTO 02005KT 5SM BR FEW110 18/17 A2965 RMK AO2 LTG DSNT N AND NE

10-Day Weather Forecast

×

Almanac

Astronomy

Aug. 31, 2015 Rise Set
Actual Time
Civil Twilight
Nautical Twilight
Astronomical Twilight
Moon
Length of Visible Light
Length of Day
Tomorrow will be .
, % of the Moon is Illuminated

Today's Extremes

State Highs State Lows

Community

WunderPhotos

Upload Photos

1,851,217 photos uploaded!

WunderBlogs® & News

Nearby

Air Quality

  Air Quality AQ Index Pollutant
Not available.

Snow Depth

Station Depth Elevation

Earthquake Activity

City Distance Mag. Time & Date
Minimum magnitude displayed is 2.5.

Coastal Water Temperatures

Place Temperature

Stations

Nearby Weather Stations

Station Location Temp. Windchill Dew Point Humidity Wind Precip. Elev Updated Type